Time;durP1;ratioP1;P1;durP2;ratioP2;P2;SDS_P1;SDS_P2;PMS_P1;PMS_P2;Temp;Humidity;BMP_temperature;BMP_pressure;BME280_temperature;BME280_humidity;BME280_pressure;Samples;Min_cycle;Max_cycle;Signal;HPM_P1;HPM_P2
2022/01/07 00:01:18;;;;;;;6.23;1.57;;;;;;;-4.51;100.00;96805.63;10536245;28;20189;-77
2022/01/07 00:06:19;;;;;;;1.00;1.00;;;;;;;-4.43;100.00;96802.75;10518200;28;20200;-77
2022/01/07 00:11:19;;;;;;;4.50;1.30;;;;;;;-4.59;100.00;96792.31;10518272;28;20212;-77
2022/01/07 00:16:20;;;;;;;8.80;1.77;;;;;;;-4.67;100.00;96798.56;10535829;28;20726;-77
2022/01/07 00:21:20;;;;;;;7.43;1.37;;;;;;;-4.79;100.00;96791.38;10535847;28;20262;-78
2022/01/07 00:26:21;;;;;;;4.37;1.40;;;;;;;-4.85;100.00;96789.06;10535875;28;20200;-78
2022/01/07 00:31:21;;;;;;;3.40;1.60;;;;;;;-4.85;100.00;96794.19;10535267;28;20557;-77
2022/01/07 00:36:22;;;;;;;2.73;1.37;;;;;;;-4.78;100.00;96794.75;10535728;28;20298;-78
2022/01/07 00:41:22;;;;;;;3.07;1.13;;;;;;;-4.83;100.00;96794.94;10537170;28;20189;-78
2022/01/07 00:46:22;;;;;;;2.70;1.20;;;;;;;-4.88;100.00;96796.84;10544256;28;20244;-77
2022/01/07 00:51:23;;;;;;;2.43;1.37;;;;;;;-4.85;100.00;96789.88;10543278;28;20662;-77
2022/01/07 00:56:23;;;;;;;3.97;1.20;;;;;;;-4.91;100.00;96796.97;10525059;28;20212;-77
2022/01/07 01:01:24;;;;;;;1.67;1.10;;;;;;;-4.92;100.00;96791.00;10543051;28;20204;-77
2022/01/07 01:06:24;;;;;;;1.17;0.93;;;;;;;-4.86;100.00;96795.88;10543370;28;20203;-77
2022/01/07 01:11:24;;;;;;;3.30;1.17;;;;;;;-4.92;100.00;96797.84;10542671;28;20603;-77
2022/01/07 01:16:25;;;;;;;5.07;1.33;;;;;;;-4.93;100.00;96803.84;10542681;28;20216;-77
2022/01/07 01:21:25;;;;;;;4.30;1.20;;;;;;;-4.90;100.00;96793.50;10542534;28;20280;-77
2022/01/07 01:26:25;;;;;;;2.73;0.83;;;;;;;-4.93;100.00;96807.25;10541921;28;20704;-78
2022/01/07 01:31:26;;;;;;;4.47;1.13;;;;;;;-4.86;100.00;96790.78;10542776;28;20724;-78
2022/01/07 01:36:26;;;;;;;3.63;1.37;;;;;;;-4.85;100.00;96783.97;10523639;28;20647;-77
2022/01/07 01:41:26;;;;;;;3.20;1.40;;;;;;;-4.81;100.00;96797.44;10523507;28;20616;-77
2022/01/07 01:46:27;;;;;;;1.10;0.90;;;;;;;-4.75;100.00;96784.41;10541730;28;20199;-77
2022/01/07 01:51:27;;;;;;;6.00;1.27;;;;;;;-4.84;100.00;96786.44;10541022;28;20238;-78
2022/01/07 01:56:28;;;;;;;5.63;1.27;;;;;;;-4.76;100.00;96785.28;10540718;28;20303;-78
2022/01/07 02:01:28;;;;;;;5.83;1.57;;;;;;;-4.77;100.00;96779.38;10539254;28;20200;-77
2022/01/07 02:06:29;;;;;;;2.33;1.10;;;;;;;-4.73;100.00;96768.13;10522910;28;20199;-79
2022/01/07 02:11:31;;;;;;;4.13;1.27;;;;;;;-4.82;100.00;96770.22;10540101;28;20189;-78
2022/01/07 02:16:31;;;;;;;4.87;1.60;;;;;;;-4.90;100.00;96762.84;10539727;28;20229;-79
2022/01/07 02:21:36;;;;;;;0.90;0.90;;;;;;;-4.82;100.00;96750.63;10538665;28;20200;-78
2022/01/07 02:26:36;;;;;;;4.67;1.43;;;;;;;-4.85;100.00;96743.91;10538247;28;20191;-78
2022/01/07 02:31:37;;;;;;;4.73;1.17;;;;;;;-4.83;100.00;96723.41;10538800;28;20245;-78
2022/01/07 02:36:37;;;;;;;1.50;0.73;;;;;;;-4.78;100.00;96731.69;10520771;28;20240;-78
2022/01/07 02:41:37;;;;;;;2.50;1.10;;;;;;;-4.49;100.00;96730.53;10521148;28;20202;-78
2022/01/07 02:46:38;;;;;;;3.07;1.30;;;;;;;-4.53;100.00;96720.50;10539539;28;20189;-79
2022/01/07 02:51:38;;;;;;;4.20;1.20;;;;;;;-4.58;100.00;96709.59;10538406;28;20645;-79
2022/01/07 02:56:39;;;;;;;3.97;0.80;;;;;;;-4.44;100.00;96694.53;10538841;28;20229;-78
2022/01/07 03:01:40;;;;;;;7.77;1.70;;;;;;;-4.41;100.00;96694.41;10538376;28;20553;-78
2022/01/07 03:06:40;;;;;;;5.70;1.27;;;;;;;-4.39;100.00;96686.69;10535599;28;20591;-78
2022/01/07 03:11:41;;;;;;;4.03;1.20;;;;;;;-4.34;100.00;96685.56;10538313;28;20189;-78
2022/01/07 03:16:41;;;;;;;1.13;1.03;;;;;;;-4.32;100.00;96686.34;10537960;28;20224;-78
2022/01/07 03:21:42;;;;;;;2.60;2.40;;;;;;;-4.18;100.00;96675.53;10536248;28;20295;-78
2022/01/07 03:26:42;;;;;;;2.57;1.10;;;;;;;-4.09;100.00;96681.13;10537492;28;20197;-78
2022/01/07 03:31:42;;;;;;;7.97;1.53;;;;;;;-4.13;100.00;96667.66;10537181;28;20203;-78
2022/01/07 03:36:43;;;;;;;3.03;1.30;;;;;;;-4.03;100.00;96678.28;10536692;28;20229;-78
2022/01/07 03:41:44;;;;;;;3.47;1.17;;;;;;;-3.96;100.00;96665.16;10537153;28;20339;-78
2022/01/07 03:46:46;;;;;;;8.30;1.93;;;;;;;-3.86;100.00;96670.72;10537158;28;20259;-78
2022/01/07 03:51:46;;;;;;;5.37;1.70;;;;;;;-3.85;100.00;96657.00;10535851;28;20539;-78
2022/01/07 03:56:46;;;;;;;1.80;1.50;;;;;;;-3.89;100.00;96659.75;10536500;28;20248;-78
2022/01/07 04:01:47;;;;;;;2.20;1.27;;;;;;;-3.82;100.00;96649.19;10535031;28;20198;-78
2022/01/07 04:06:47;;;;;;;7.00;1.73;;;;;;;-3.90;100.00;96645.34;10530245;28;20191;-78
2022/01/07 04:11:47;;;;;;;3.30;1.20;;;;;;;-3.85;100.00;96657.00;10528808;28;20282;-78
2022/01/07 04:16:48;;;;;;;8.00;2.10;;;;;;;-3.76;100.00;96646.34;10528421;28;20244;-77
2022/01/07 04:21:49;;;;;;;17.53;2.23;;;;;;;-3.64;100.00;96644.97;10528612;28;20277;-77
2022/01/07 04:26:50;;;;;;;8.60;2.53;;;;;;;-3.69;100.00;96646.91;10528589;28;20661;-78
2022/01/07 04:31:50;;;;;;;5.67;1.70;;;;;;;-3.75;100.00;96629.28;10528504;28;20198;-76
2022/01/07 04:36:50;;;;;;;6.13;2.00;;;;;;;-3.77;100.00;96625.94;10519547;28;20239;-77
2022/01/07 04:41:51;;;;;;;3.70;1.70;;;;;;;-3.66;100.00;96625.44;10486856;28;20243;-77
2022/01/07 04:46:51;;;;;;;5.90;1.73;;;;;;;-3.89;100.00;96626.50;10486647;28;20190;-77
2022/01/07 04:51:51;;;;;;;7.70;1.60;;;;;;;-3.98;100.00;96614.94;10468353;28;20280;-77
2022/01/07 04:56:52;;;;;;;5.20;2.37;;;;;;;-3.87;100.00;96611.94;10486021;28;20226;-78
2022/01/07 05:01:54;;;;;;;3.40;1.63;;;;;;;-3.84;100.00;96611.78;10488008;28;20322;-77
2022/01/07 05:06:54;;;;;;;5.83;1.50;;;;;;;-3.92;100.00;96603.59;10493098;28;20566;-78
2022/01/07 05:11:55;;;;;;;2.40;1.13;;;;;;;-3.78;100.00;96594.41;10492935;28;20289;-78
2022/01/07 05:16:56;;;;;;;2.90;1.40;;;;;;;-3.76;100.00;96596.88;10492761;28;20226;-77
2022/01/07 05:21:56;;;;;;;2.10;1.57;;;;;;;-3.76;100.00;96599.44;10492706;28;20613;-78
2022/01/07 05:26:57;;;;;;;5.03;2.00;;;;;;;-3.76;100.00;96584.91;10476368;28;20198;-77
2022/01/07 05:31:57;;;;;;;2.87;1.43;;;;;;;-3.70;100.00;96583.81;10500037;28;20217;-77
2022/01/07 05:36:58;;;;;;;4.20;2.03;;;;;;;-3.67;100.00;96575.97;10509378;28;20244;-78
2022/01/07 05:41:59;;;;;;;6.37;2.63;;;;;;;-3.70;100.00;96572.75;10541894;28;20197;-78
2022/01/07 05:47:00;;;;;;;9.83;4.53;;;;;;;-3.71;100.00;96563.41;10541566;28;20194;-78
2022/01/07 05:52:00;;;;;;;21.13;9.10;;;;;;;-3.72;100.00;96572.81;10542004;28;20186;-78
2022/01/07 05:57:00;;;;;;;6.13;2.50;;;;;;;-3.62;100.00;96556.09;10540552;28;20221;-79
2022/01/07 06:02:01;;;;;;;7.87;4.07;;;;;;;-3.60;100.00;96549.19;10522934;28;20190;-78
2022/01/07 06:07:01;;;;;;;2.87;1.60;;;;;;;-3.48;100.00;96554.63;10540806;28;20652;-78
2022/01/07 06:12:02;;;;;;;4.93;2.93;;;;;;;-3.51;100.00;96562.44;10540994;28;20649;-78
2022/01/07 06:17:03;;;;;;;6.03;2.47;;;;;;;-3.58;100.00;96559.38;10540740;28;20228;-78
2022/01/07 06:22:03;;;;;;;7.40;2.03;;;;;;;-3.49;100.00;96563.19;10540142;28;20194;-78
2022/01/07 06:27:04;;;;;;;5.87;1.87;;;;;;;-3.53;100.00;96565.09;10540625;28;20313;-78
2022/01/07 06:32:05;;;;;;;4.87;2.27;;;;;;;-3.54;100.00;96553.16;10539268;28;20194;-78
2022/01/07 06:37:06;;;;;;;8.23;2.10;;;;;;;-3.50;100.00;96559.81;10540118;28;20238;-78
2022/01/07 06:42:06;;;;;;;5.13;1.97;;;;;;;-3.53;100.00;96554.03;10539364;28;20329;-77
2022/01/07 06:47:07;;;;;;;6.10;1.97;;;;;;;-3.47;100.00;96551.16;10540309;28;20186;-77
2022/01/07 06:52:07;;;;;;;6.70;1.97;;;;;;;-3.41;100.00;96556.00;10540351;28;20198;-77
2022/01/07 06:57:07;;;;;;;4.43;2.10;;;;;;;-3.45;100.00;96568.09;10539692;28;20224;-77
2022/01/07 07:02:08;;;;;;;5.10;2.37;;;;;;;-3.48;100.00;96560.56;10528765;28;20190;-78
2022/01/07 07:07:08;;;;;;;1.87;1.73;;;;;;;-3.39;100.00;96573.84;10538205;28;20217;-77
2022/01/07 07:12:09;;;;;;;6.70;2.53;;;;;;;-3.31;100.00;96566.59;10538000;28;20183;-78
2022/01/07 07:17:12;;;;;;;1.77;1.63;;;;;;;-3.28;100.00;96562.19;10537575;28;20218;-78
2022/01/07 07:22:12;;;;;;;4.80;2.50;;;;;;;-3.35;100.00;96560.81;10537916;28;20548;-78
2022/01/07 07:27:12;;;;;;;7.00;3.60;;;;;;;-3.42;100.00;96559.44;10537278;28;20198;-78
2022/01/07 07:32:15;;;;;;;6.87;2.73;;;;;;;-3.33;100.00;96565.84;10519343;28;20228;-79
2022/01/07 07:37:15;;;;;;;5.63;3.10;;;;;;;-3.28;100.00;96562.19;10536244;28;20230;-79
2022/01/07 07:42:16;;;;;;;5.50;3.03;;;;;;;-3.25;100.00;96550.94;10536606;28;20194;-77
2022/01/07 07:47:22;;;;;;;9.03;3.23;;;;;;;-3.27;100.00;96547.63;10503061;28;20220;-77
2022/01/07 07:52:23;;;;;;;6.93;4.13;;;;;;;-3.18;100.00;96554.03;10536128;28;20743;-77
2022/01/07 07:57:23;;;;;;;7.50;4.40;;;;;;;-3.11;100.00;96560.50;10535856;28;20222;-78
2022/01/07 08:02:24;;;;;;;5.63;3.33;;;;;;;-2.83;100.00;96554.84;10530073;28;20195;-77
2022/01/07 08:07:24;;;;;;;7.80;3.33;;;;;;;-2.79;100.00;96550.38;10515597;28;20194;-77
2022/01/07 08:12:39;;;;;;;6.67;3.80;;;;;;;-2.70;100.00;96552.47;10525537;28;20198;-77
2022/01/07 08:17:39;;;;;;;7.53;2.97;;;;;;;-2.56;100.00;96541.47;10535361;28;20210;-77
2022/01/07 08:22:40;;;;;;;6.43;3.17;;;;;;;-2.51;100.00;96548.03;10529089;28;20190;-77
2022/01/07 08:27:40;;;;;;;6.37;3.47;;;;;;;-2.36;100.00;96532.75;10531263;28;20197;-76
2022/01/07 08:38:00;;;;;;;4.77;2.87;;;;;;;-2.08;100.00;96521.84;10518026;28;20236;-76
2022/01/07 08:43:00;;;;;;;7.10;3.90;;;;;;;-2.02;100.00;96515.53;10513032;28;20203;-77
2022/01/07 08:48:01;;;;;;;9.33;4.70;;;;;;;-1.96;100.00;96504.94;10507717;28;20194;-77
2022/01/07 08:53:01;;;;;;;7.43;4.37;;;;;;;-1.81;100.00;96518.66;10491898;28;20221;-78
2022/01/07 08:58:01;;;;;;;9.17;4.70;;;;;;;-1.83;100.00;96495.63;10490632;28;20230;-78
2022/01/07 09:03:02;;;;;;;19.63;5.00;;;;;;;-1.64;100.00;96500.59;10477813;28;20191;-78
2022/01/07 09:08:02;;;;;;;7.67;4.37;;;;;;;-1.74;100.00;96493.50;10497546;28;20190;-78
2022/01/07 09:13:03;;;;;;;9.13;3.93;;;;;;;-1.67;100.00;96499.91;10498681;28;20252;-78
2022/01/07 09:18:11;;;;;;;7.87;3.63;;;;;;;-1.49;100.00;96490.34;10528183;28;20758;-78
2022/01/07 09:23:12;;;;;;;7.97;2.97;;;;;;;-1.48;100.00;96482.53;10539758;28;20535;-78
2022/01/07 09:28:13;;;;;;;8.03;4.30;;;;;;;-1.43;100.00;96479.72;10540845;28;20210;-79
2022/01/07 09:33:13;;;;;;;6.00;2.50;;;;;;;-1.47;100.00;96501.34;10538790;28;20200;-78
2022/01/07 09:38:13;;;;;;;7.50;4.07;;;;;;;-1.56;100.00;96481.31;10540458;28;20235;-79
2022/01/07 09:43:15;;;;;;;7.17;4.23;;;;;;;-1.56;100.00;96468.47;10540038;28;20218;-78
2022/01/07 09:48:15;;;;;;;7.90;2.83;;;;;;;-1.59;100.00;96461.78;10539639;28;20187;-78
2022/01/07 09:53:15;;;;;;;5.40;2.90;;;;;;;-1.60;100.00;96456.75;10539198;28;20967;-79
2022/01/07 09:58:16;;;;;;;8.50;4.10;;;;;;;-1.67;100.00;96453.69;10538736;28;20218;-79
2022/01/07 10:03:17;;;;;;;5.53;3.10;;;;;;;-1.63;100.00;96440.56;10539827;28;20707;-77
2022/01/07 10:08:26;;;;;;;7.20;2.63;;;;;;;-1.66;100.00;96437.38;10538315;28;20239;-78
2022/01/07 10:13:27;;;;;;;6.07;3.83;;;;;;;-1.71;100.00;96427.38;10519341;28;20191;-78
2022/01/07 10:18:36;;;;;;;4.53;3.20;;;;;;;-1.56;100.00;96423.09;10534494;28;20222;-78
2022/01/07 10:23:37;;;;;;;4.73;2.77;;;;;;;-1.48;100.00;96410.63;10502613;28;20195;-77
2022/01/07 10:28:38;;;;;;;11.33;3.67;;;;;;;-1.53;100.00;96404.09;10538148;28;20206;-78
2022/01/07 10:33:41;;;;;;;6.07;4.33;;;;;;;-1.50;100.00;96388.50;10536950;28;20187;-79
2022/01/07 10:38:49;;;;;;;9.20;4.53;;;;;;;-1.39;100.00;96375.00;10535321;28;20226;-78
2022/01/07 10:43:50;;;;;;;7.87;4.80;;;;;;;-1.43;100.00;96376.94;10519894;28;20225;-78
2022/01/07 10:48:55;;;;;;;10.83;5.07;;;;;;;-1.32;100.00;96366.03;10537501;28;20589;-78
2022/01/07 10:54:00;;;;;;;9.83;6.00;;;;;;;-1.15;100.00;96358.16;10535926;28;20178;-77
2022/01/07 10:59:04;;;;;;;12.53;6.53;;;;;;;-1.34;100.00;96352.47;10527010;28;20198;-77
2022/01/07 11:04:07;;;;;;;8.70;5.30;;;;;;;-1.23;100.00;96362.09;10517697;28;20579;-77
2022/01/07 11:09:09;;;;;;;10.40;5.43;;;;;;;-1.22;100.00;96351.72;10536345;28;20220;-77
2022/01/07 11:14:11;;;;;;;11.47;5.93;;;;;;;-1.13;100.00;96350.34;10535761;28;20187;-77
2022/01/07 11:19:17;;;;;;;10.50;5.73;;;;;;;-1.05;100.00;96353.25;10535871;28;20190;-77
2022/01/07 11:24:56;;;;;;;11.30;5.10;;;;;;;-0.99;100.00;96331.50;10516256;28;20233;-76
2022/01/07 11:30:02;;;;;;;9.80;4.77;;;;;;;-1.06;100.00;96322.50;10534222;28;20689;-77
2022/01/07 11:35:21;;;;;;;9.87;4.90;;;;;;;-1.08;100.00;96304.63;10533938;28;20281;-79
2022/01/07 11:40:33;;;;;;;11.10;5.93;;;;;;;-0.76;100.00;96306.94;10533810;28;20273;-76
2022/01/07 11:45:33;;;;;;;8.00;4.70;;;;;;;-0.91;100.00;96294.09;10534524;28;20198;-77
2022/01/07 11:50:56;;;;;;;7.40;4.27;;;;;;;-0.91;100.00;96290.72;10533128;28;20186;-77
2022/01/07 11:56:04;;;;;;;12.73;6.07;;;;;;;-0.70;100.00;96301.41;10533533;28;20502;-76
2022/01/07 12:01:04;;;;;;;12.13;6.63;;;;;;;-0.49;100.00;96278.63;10532577;28;20289;-76
2022/01/07 12:06:26;;;;;;;14.57;6.30;;;;;;;-0.45;100.00;96274.91;10532820;28;20193;-76
2022/01/07 12:11:33;;;;;;;13.33;6.43;;;;;;;-0.76;100.00;96271.72;10514541;28;20202;-76
2022/01/07 12:16:34;;;;;;;9.77;5.40;;;;;;;-1.04;100.00;96262.38;10514624;28;20360;-76
2022/01/07 12:21:36;;;;;;;10.17;5.47;;;;;;;-1.05;100.00;96262.47;10532995;28;20199;-78
2022/01/07 12:26:37;;;;;;;7.80;5.00;;;;;;;-0.99;100.00;96269.81;10526560;28;20190;-77
2022/01/07 12:31:48;;;;;;;10.53;6.60;;;;;;;-1.02;100.00;96259.72;10513150;28;20198;-77
2022/01/07 12:36:55;;;;;;;9.13;5.23;;;;;;;-0.97;100.00;96249.97;10513819;28;20242;-76
2022/01/07 12:41:56;;;;;;;11.30;5.17;;;;;;;-0.90;100.00;96253.78;10500143;28;20213;-77
2022/01/07 12:46:57;;;;;;;6.30;3.90;;;;;;;-0.89;100.00;96245.13;10540557;28;20269;-76
2022/01/07 12:52:15;;;;;;;7.47;3.97;;;;;;;-0.85;100.00;96232.94;10537609;28;20193;-77
2022/01/07 12:57:36;;;;;;;9.03;4.73;;;;;;;-0.84;100.00;96237.13;10518243;28;20218;-76
2022/01/07 13:02:38;;;;;;;16.07;5.63;;;;;;;-0.85;100.00;96241.47;10535488;28;20198;-76
2022/01/07 13:07:43;;;;;;;10.27;4.83;;;;;;;-0.86;100.00;96229.53;10537143;28;20274;-77
2022/01/07 13:12:52;;;;;;;10.83;4.97;;;;;;;-0.91;100.00;96216.97;10521990;28;20183;-77
2022/01/07 13:17:52;;;;;;;8.57;5.07;;;;;;;-0.81;100.00;96218.94;10539656;28;20239;-76
2022/01/07 13:22:53;;;;;;;5.50;3.30;;;;;;;-0.75;100.00;96209.09;10538024;28;20277;-77
2022/01/07 13:27:53;;;;;;;11.00;5.37;;;;;;;-0.77;100.00;96205.78;10520716;28;20308;-77
2022/01/07 13:33:10;;;;;;;6.03;3.30;;;;;;;-0.70;100.00;96200.25;10538472;28;20198;-78
2022/01/07 13:38:16;;;;;;;11.03;5.07;;;;;;;-0.78;100.00;96193.88;10537851;28;20635;-77
2022/01/07 13:43:17;;;;;;;12.10;5.70;;;;;;;-0.85;100.00;96204.66;10539205;28;20194;-77
2022/01/07 13:48:17;;;;;;;8.97;4.40;;;;;;;-0.84;100.00;96207.13;10537697;28;20190;-76
2022/01/07 13:53:19;;;;;;;19.80;8.90;;;;;;;-0.85;100.00;96194.38;10538453;28;20178;-77
2022/01/07 13:58:19;;;;;;;83.03;28.13;;;;;;;-0.78;100.00;96195.59;10520237;28;20234;-77
2022/01/07 14:03:21;;;;;;;48.83;19.23;;;;;;;-0.74;100.00;96192.72;10520120;28;20191;-76
2022/01/07 14:08:21;;;;;;;22.37;10.43;;;;;;;-0.74;100.00;96195.28;10538328;28;20187;-77
2022/01/07 14:13:24;;;;;;;12.70;5.60;;;;;;;-0.67;100.00;96192.31;10537093;28;20195;-77
2022/01/07 14:18:25;;;;;;;10.07;6.27;;;;;;;-0.78;100.00;96199.00;10537744;28;20590;-77
2022/01/07 14:23:43;;;;;;;9.30;4.93;;;;;;;-0.77;100.00;96197.25;10519510;28;20187;-76
2022/01/07 14:28:49;;;;;;;5.67;3.43;;;;;;;-0.77;100.00;96198.06;10537090;28;20194;-77
2022/01/07 14:33:49;;;;;;;10.53;5.13;;;;;;;-0.73;100.00;96196.94;10536569;28;20694;-78
2022/01/07 14:38:54;;;;;;;8.90;4.07;;;;;;;-0.68;100.00;96195.84;10535539;28;20234;-77
2022/01/07 14:43:54;;;;;;;8.80;4.97;;;;;;;-0.76;100.00;96194.59;10536699;28;20199;-77
2022/01/07 14:48:55;;;;;;;5.40;3.43;;;;;;;-0.77;100.00;96198.06;10537278;28;20202;-78
2022/01/07 14:53:55;;;;;;;15.03;4.80;;;;;;;-0.74;100.00;96197.06;10536977;28;20197;-77
2022/01/07 14:58:56;;;;;;;9.73;4.93;;;;;;;-0.73;100.00;96188.44;10536112;28;20233;-78
2022/01/07 15:03:56;;;;;;;11.70;5.00;;;;;;;-0.74;100.00;96189.34;10518622;28;20191;-77
2022/01/07 15:08:56;;;;;;;15.90;6.83;;;;;;;-0.86;100.00;96188.38;10536704;28;20324;-78
2022/01/07 15:13:57;;;;;;;8.30;5.20;;;;;;;-0.81;100.00;96186.34;10534436;28;20199;-78
2022/01/07 15:18:58;;;;;;;6.20;4.23;;;;;;;-0.75;100.00;96182.53;10536711;28;20693;-78
2022/01/07 15:24:00;;;;;;;8.90;5.07;;;;;;;-0.76;100.00;96184.28;10515720;28;20277;-77
2022/01/07 15:29:00;;;;;;;9.47;5.20;;;;;;;-0.76;100.00;96181.72;10517706;28;20182;-77
2022/01/07 15:34:02;;;;;;;14.80;7.80;;;;;;;-0.78;100.00;96190.44;10535569;28;20195;-77
2022/01/07 15:39:06;;;;;;;14.93;8.13;;;;;;;-0.75;100.00;96188.53;10535013;28;20230;-78
2022/01/07 15:44:07;;;;;;;14.30;8.70;;;;;;;-0.79;100.00;96197.34;10517006;28;20194;-78
2022/01/07 15:49:07;;;;;;;13.53;6.50;;;;;;;-0.73;100.00;96203.84;10534267;28;20239;-78
2022/01/07 15:54:08;;;;;;;21.17;7.93;;;;;;;-0.78;100.00;96211.03;10516268;28;20190;-77
2022/01/07 15:59:08;;;;;;;13.70;7.10;;;;;;;-0.76;100.00;96207.44;10532533;28;20215;-77
2022/01/07 16:04:09;;;;;;;14.23;5.60;;;;;;;-0.76;100.00;96209.19;10532957;28;20284;-77
2022/01/07 16:09:10;;;;;;;9.83;5.10;;;;;;;-0.81;100.00;96209.50;10533600;28;20277;-77
2022/01/07 16:14:10;;;;;;;12.90;7.00;;;;;;;-0.79;100.00;96197.34;10531721;28;20661;-77
2022/01/07 16:19:10;;;;;;;11.67;7.17;;;;;;;-0.83;100.00;96197.66;10532388;28;20226;-78
2022/01/07 16:24:11;;;;;;;12.23;7.13;;;;;;;-0.76;100.00;96201.47;10527515;28;20221;-78
2022/01/07 16:29:11;;;;;;;14.47;6.97;;;;;;;-0.70;100.00;96207.97;10511698;28;20180;-78
2022/01/07 16:34:12;;;;;;;12.90;8.73;;;;;;;-0.80;100.00;96212.88;10522439;28;20186;-78
2022/01/07 16:39:12;;;;;;;11.87;5.40;;;;;;;-0.93;100.00;96207.72;10531671;28;20234;-78
2022/01/07 16:44:13;;;;;;;7.40;4.07;;;;;;;-1.00;100.00;96212.41;10531905;28;20194;-78
2022/01/07 16:49:16;;;;;;;6.23;3.63;;;;;;;-1.09;100.00;96202.72;10532646;28;20348;-78
2022/01/07 16:54:16;;;;;;;7.57;5.03;;;;;;;-1.16;100.00;96207.41;10530601;28;20199;-77
2022/01/07 16:59:17;;;;;;;11.90;5.90;;;;;;;-1.18;100.00;96203.28;10532310;28;20605;-78
2022/01/07 17:04:17;;;;;;;10.57;5.77;;;;;;;-1.29;100.00;96193.69;10533039;28;20285;-77
2022/01/07 17:09:18;;;;;;;8.27;4.97;;;;;;;-1.29;100.00;96191.97;10531405;28;20190;-78
2022/01/07 17:14:18;;;;;;;9.97;6.07;;;;;;;-1.30;100.00;96192.06;10533767;28;20194;-78
2022/01/07 17:19:18;;;;;;;14.57;7.40;;;;;;;-1.33;100.00;96184.50;10532410;28;20735;-78
2022/01/07 17:24:19;;;;;;;19.27;10.37;;;;;;;-1.33;100.00;96180.22;10494595;28;20193;-79
2022/01/07 17:29:19;;;;;;;17.87;8.30;;;;;;;-1.32;100.00;96181.03;10518485;28;20188;-78
2022/01/07 17:34:20;;;;;;;13.20;7.10;;;;;;;-1.25;100.00;96174.59;10506178;28;20201;-79
2022/01/07 17:39:20;;;;;;;29.57;14.63;;;;;;;-1.19;100.00;96181.91;10471143;28;20227;-79
2022/01/07 17:44:20;;;;;;;13.10;7.93;;;;;;;-1.18;100.00;96181.00;10474334;28;20206;-79
2022/01/07 17:49:21;;;;;;;41.70;17.97;;;;;;;-1.13;100.00;96185.84;10488780;28;20187;-79
2022/01/07 17:54:21;;;;;;;15.50;8.80;;;;;;;-1.26;100.00;96191.78;10475544;28;20192;-79
2022/01/07 17:59:22;;;;;;;42.13;19.43;;;;;;;-1.22;100.00;96194.97;10459313;28;20184;-78
2022/01/07 18:04:22;;;;;;;16.40;10.13;;;;;;;-1.28;100.00;96190.19;10474932;28;20183;-78
2022/01/07 18:09:23;;;;;;;16.27;7.70;;;;;;;-1.46;100.00;96193.00;10475424;28;20191;-78
2022/01/07 18:14:24;;;;;;;21.77;11.60;;;;;;;-1.39;100.00;96192.59;10478102;28;20555;-79
2022/01/07 18:19:24;;;;;;;17.13;9.43;;;;;;;-1.37;100.00;96188.22;10475622;28;20186;-78
2022/01/07 18:24:25;;;;;;;13.83;8.57;;;;;;;-1.50;100.00;96193.28;10465016;28;20200;-79
2022/01/07 18:29:25;;;;;;;15.57;9.50;;;;;;;-1.47;100.00;96188.78;10457584;28;20686;-79
2022/01/07 18:34:29;;;;;;;11.20;7.70;;;;;;;-1.47;100.00;96188.78;10437822;28;20192;-78
2022/01/07 18:39:29;;;;;;;14.37;7.27;;;;;;;-1.43;100.00;96189.41;10486608;28;20231;-78
2022/01/07 18:44:29;;;;;;;11.37;7.70;;;;;;;-1.41;100.00;96184.19;10497435;28;20186;-79
2022/01/07 18:49:30;;;;;;;10.13;6.20;;;;;;;-1.34;100.00;96177.75;10495811;28;20187;-78
2022/01/07 18:54:30;;;;;;;8.30;5.63;;;;;;;-1.34;100.00;96175.19;10495699;28;20655;-78
2022/01/07 18:59:30;;;;;;;8.07;5.27;;;;;;;-1.31;100.00;96164.69;10484899;28;20218;-79
2022/01/07 19:04:37;;;;;;;12.70;6.97;;;;;;;-1.37;100.00;96160.75;10474957;28;20195;-79
2022/01/07 19:09:38;;;;;;;30.80;14.90;;;;;;;-1.35;100.00;96158.09;10472204;28;20190;-78
2022/01/07 19:14:38;;;;;;;15.43;9.57;;;;;;;-1.37;100.00;96157.38;10475168;28;20207;-78
2022/01/07 19:19:39;;;;;;;15.10;10.37;;;;;;;-1.26;100.00;96154.94;10458909;28;20195;-78
2022/01/07 19:24:39;;;;;;;12.67;9.63;;;;;;;-1.22;100.00;96141.00;10453455;28;20262;-78
2022/01/07 19:29:40;;;;;;;8.67;5.50;;;;;;;-1.10;100.00;96137.63;10476465;28;20270;-79
2022/01/07 19:34:40;;;;;;;3.17;2.60;;;;;;;-1.00;100.00;96134.47;10493090;28;20276;-78
2022/01/07 19:39:41;;;;;;;8.60;5.87;;;;;;;-1.07;100.00;96136.63;10494586;28;20238;-78
2022/01/07 19:44:41;;;;;;;7.17;5.20;;;;;;;-1.09;100.00;96134.16;10493871;28;20523;-77
2022/01/07 19:49:42;;;;;;;7.67;5.03;;;;;;;-1.07;100.00;96136.63;10493038;28;20199;-77
2022/01/07 19:54:42;;;;;;;6.57;4.33;;;;;;;-1.06;100.00;96132.28;10493122;28;20566;-77
2022/01/07 19:59:42;;;;;;;6.77;5.20;;;;;;;-1.26;100.00;96149.81;10493316;28;20274;-78
2022/01/07 20:04:43;;;;;;;7.07;4.83;;;;;;;-1.22;100.00;96146.13;10493007;28;20570;-77
2022/01/07 20:09:44;;;;;;;6.60;4.80;;;;;;;-1.26;100.00;96134.38;10475047;28;20293;-78
2022/01/07 20:14:45;;;;;;;8.10;5.57;;;;;;;-1.33;100.00;96128.84;10492815;28;20219;-78
2022/01/07 20:19:45;;;;;;;7.60;5.03;;;;;;;-1.22;100.00;96128.16;10474218;28;20217;-77
2022/01/07 20:24:46;;;;;;;6.33;4.57;;;;;;;-1.18;100.00;96121.91;10474892;28;20187;-78
2022/01/07 20:29:46;;;;;;;7.67;5.43;;;;;;;-1.36;100.00;96133.31;10491977;28;20195;-78
2022/01/07 20:34:47;;;;;;;6.13;4.50;;;;;;;-1.12;100.00;96134.34;10492241;28;20272;-78
2022/01/07 20:39:47;;;;;;;6.97;4.90;;;;;;;-1.12;100.00;96147.19;10492051;28;20230;-78
2022/01/07 20:44:48;;;;;;;6.03;4.53;;;;;;;-0.95;100.00;96142.69;10474082;28;20248;-77
2022/01/07 20:49:48;;;;;;;6.37;4.73;;;;;;;-0.77;100.00;96131.19;10492128;28;20195;-77
2022/01/07 20:54:48;;;;;;;6.97;4.47;;;;;;;-0.50;100.00;96134.66;10492473;28;20215;-77
2022/01/07 20:59:49;;;;;;;6.13;3.80;;;;;;;-0.60;100.00;96124.13;10497371;28;20197;-77
2022/01/07 21:04:49;;;;;;;5.23;3.40;;;;;;;-0.48;100.00;96119.91;10499866;28;20191;-77
2022/01/07 21:09:52;;;;;;;7.13;4.27;;;;;;;-0.53;100.00;96112.50;10499846;28;20659;-77
2022/01/07 21:14:52;;;;;;;6.33;4.60;;;;;;;-0.61;100.00;96128.47;10498606;28;20230;-77
2022/01/07 21:20:12;;;;;;;5.27;3.93;;;;;;;-0.58;100.00;96123.09;10499704;28;20195;-77
2022/01/07 21:25:14;;;;;;;5.37;2.90;;;;;;;-0.54;100.00;96128.88;10497873;28;20202;-77
2022/01/07 21:30:14;;;;;;;6.23;4.40;;;;;;;-0.54;100.00;96128.88;10460654;28;20685;-77
2022/01/07 21:35:14;;;;;;;5.83;4.00;;;;;;;-0.49;100.00;96133.69;10479847;28;20247;-77
2022/01/07 21:40:16;;;;;;;4.13;3.70;;;;;;;-0.43;100.00;96123.84;10537320;28;20238;-76
2022/01/07 21:45:17;;;;;;;6.60;4.90;;;;;;;-0.53;100.00;96115.09;10523846;28;20193;-77
2022/01/07 21:50:18;;;;;;;4.93;3.73;;;;;;;-0.53;100.00;96117.66;10524161;28;20195;-76
2022/01/07 21:55:19;;;;;;;6.30;4.73;;;;;;;-0.60;100.00;96106.13;10541914;28;20225;-77
2022/01/07 22:00:19;;;;;;;7.10;4.27;;;;;;;-0.64;100.00;96102.13;10523504;28;20547;-77
2022/01/07 22:05:21;;;;;;;6.07;4.57;;;;;;;-0.91;100.00;96103.00;10541370;28;20289;-77
2022/01/07 22:10:22;;;;;;;4.90;4.03;;;;;;;-0.78;100.00;96093.56;10522102;28;20674;-77
2022/01/07 22:15:22;;;;;;;5.10;3.67;;;;;;;-0.74;100.00;96082.13;10540361;28;20222;-76
2022/01/07 22:20:23;;;;;;;4.43;3.40;;;;;;;-0.80;100.00;96081.72;10523098;28;20190;-77
2022/01/07 22:25:23;;;;;;;4.17;3.30;;;;;;;-0.76;100.00;96078.84;10539960;28;20626;-78
2022/01/07 22:30:23;;;;;;;4.73;3.00;;;;;;;-0.60;100.00;96075.25;10522409;28;20191;-77
2022/01/07 22:35:24;;;;;;;3.57;3.13;;;;;;;-0.65;100.00;96064.47;10521930;28;20313;-78
2022/01/07 22:40:24;;;;;;;4.30;3.07;;;;;;;-0.73;100.00;96064.97;10539308;28;20234;-77
2022/01/07 22:45:25;;;;;;;8.10;3.40;;;;;;;-0.82;100.00;96052.75;10539795;28;20202;-77
2022/01/07 22:50:25;;;;;;;4.47;3.00;;;;;;;-0.86;100.00;96052.09;10539005;28;20187;-77
2022/01/07 22:55:26;;;;;;;4.90;3.33;;;;;;;-0.96;100.00;96059.63;10539206;28;20218;-77
2022/01/07 23:00:28;;;;;;;5.53;3.20;;;;;;;-0.95;100.00;96029.56;10538490;28;20191;-77
2022/01/07 23:05:30;;;;;;;4.47;3.50;;;;;;;-1.15;100.00;96057.44;10520432;28;20684;-77